createdAt,value
2018-04-07T00:02:49.692Z,100803.62
2018-04-07T00:07:44.835Z,100806.16
2018-04-07T00:12:39.296Z,100808.38
2018-04-07T00:17:34.417Z,100816.84
2018-04-07T00:22:28.548Z,100821.88
2018-04-07T00:27:22.915Z,100820.67
2018-04-07T00:32:17.287Z,100819.62
2018-04-07T00:37:11.689Z,100813.32
2018-04-07T00:42:06.081Z,100812.41
2018-04-07T00:47:00.455Z,100802.88
2018-04-07T00:51:55.584Z,100806.45
2018-04-07T00:56:49.958Z,100786.78
2018-04-07T01:01:44.315Z,100791.20
2018-04-07T01:06:38.689Z,100782.95
2018-04-07T01:11:33.261Z,100778.09
2018-04-07T01:16:27.638Z,100783.30
2018-04-07T01:21:22.023Z,100766.16
2018-04-07T01:26:16.379Z,100765.44
2018-04-07T01:31:10.756Z,100776.58
2018-04-07T01:36:05.130Z,100763.08
2018-04-07T01:40:59.492Z,100763.14
2018-04-07T01:45:54.645Z,100778.30
2018-04-07T01:50:49.027Z,100781.48
2018-04-07T01:55:44.268Z,100772.19
2018-04-07T02:00:38.654Z,100762.41
2018-04-07T02:05:33.772Z,100753.53
2018-04-07T02:10:28.902Z,100762.67
2018-04-07T02:15:23.272Z,100775.84
2018-04-07T02:20:17.631Z,100776.55
2018-04-07T02:25:12.136Z,100773.19
2018-04-07T02:30:06.492Z,100767.17
2018-04-07T02:35:01.655Z,100760.56
2018-04-07T02:39:56.039Z,100750.94
2018-04-07T02:44:53.485Z,100744.27
2018-04-07T02:49:47.864Z,100733.67
2018-04-07T02:54:42.244Z,100725.39
2018-04-07T02:59:36.612Z,100717.45
2018-04-07T03:04:31.737Z,100722.95
2018-04-07T03:09:26.128Z,100727.00
2018-04-07T03:14:21.257Z,100732.37
2018-04-07T03:19:15.627Z,100735.09
2018-04-07T03:24:10.004Z,100740.27
2018-04-07T03:29:04.356Z,100735.12
2018-04-07T03:33:59.540Z,100736.13
2018-04-07T03:38:53.900Z,100728.84
2018-04-07T03:43:48.259Z,100734.04
2018-04-07T03:48:42.412Z,100735.52
2018-04-07T03:53:36.780Z,100722.11
2018-04-07T03:58:31.435Z,100720.06
2018-04-07T04:03:25.959Z,100729.72
2018-04-07T04:08:20.339Z,100739.33
2018-04-07T04:13:14.711Z,100738.50
2018-04-07T04:18:09.082Z,100724.67
2018-04-07T04:23:04.412Z,100715.53
2018-04-07T04:27:58.775Z,100708.18
2018-04-07T04:32:53.231Z,100700.50
2018-04-07T04:37:48.364Z,100697.43
2018-04-07T04:42:43.493Z,100703.67
2018-04-07T04:47:37.929Z,100695.34
2018-04-07T04:52:32.295Z,100694.17
2018-04-07T04:57:26.751Z,100699.55
2018-04-07T05:02:21.116Z,100703.06
2018-04-07T05:07:15.481Z,100706.94
2018-04-07T05:12:10.640Z,100696.27
2018-04-07T05:17:05.423Z,100692.23
2018-04-07T05:22:00.313Z,100693.24
2018-04-07T05:26:54.761Z,100694.91
2018-04-07T05:31:49.293Z,100693.63
2018-04-07T05:36:44.246Z,100701.47
2018-04-07T05:41:39.120Z,100705.79
2018-04-07T05:46:33.466Z,100713.12
2018-04-07T05:51:27.837Z,100704.26
2018-04-07T05:56:22.985Z,100701.25
2018-04-07T06:01:18.128Z,100696.83
2018-04-07T06:06:13.254Z,100708.22
2018-04-07T06:11:08.398Z,100717.83
2018-04-07T06:16:02.778Z,100719.81
2018-04-07T06:20:56.972Z,100717.47
2018-04-07T06:25:51.324Z,100715.45
2018-04-07T06:30:45.693Z,100713.73
2018-04-07T06:35:40.056Z,100700.65
2018-04-07T06:40:34.532Z,100725.30
2018-04-07T06:45:29.666Z,100704.23
2018-04-07T06:50:24.026Z,100708.03
2018-04-07T06:55:18.404Z,100715.44
2018-04-07T07:00:13.575Z,100697.53
2018-04-07T07:05:07.692Z,100693.19
2018-04-07T07:10:02.070Z,100697.38
2018-04-07T07:14:56.462Z,100684.58
2018-04-07T07:19:50.804Z,100685.77
2018-04-07T07:24:45.098Z,100693.52
2018-04-07T07:29:39.478Z,100695.29
2018-04-07T07:34:35.786Z,100689.70
2018-04-07T07:39:30.679Z,100687.09
2018-04-07T07:44:26.416Z,100679.17
2018-04-07T07:49:21.563Z,100689.32
2018-04-07T07:54:15.991Z,100666.86
2018-04-07T07:59:10.350Z,100673.41
2018-04-07T08:04:05.631Z,100684.19
2018-04-07T08:09:00.149Z,100668.50
2018-04-07T08:13:54.500Z,100660.17
2018-04-07T08:18:48.866Z,100671.45
2018-04-07T08:23:43.216Z,100668.16
2018-04-07T08:28:37.578Z,100660.74
2018-04-07T08:33:32.710Z,100666.01
2018-04-07T08:38:27.672Z,100668.70
2018-04-07T08:43:22.175Z,100672.11
2018-04-07T08:48:16.814Z,100668.73
2018-04-07T08:53:11.340Z,100673.43
2018-04-07T08:58:06.135Z,100690.93
2018-04-07T09:03:00.894Z,100677.87
2018-04-07T09:07:56.340Z,100673.02
2018-04-07T09:12:51.254Z,100666.29
2018-04-07T09:17:45.888Z,100658.30
2018-04-07T09:22:40.512Z,100649.48
2018-04-07T09:27:35.221Z,100658.78
2018-04-07T09:32:29.996Z,100636.47
2018-04-07T09:37:24.633Z,100639.08
2018-04-07T09:42:19.092Z,100639.84
2018-04-07T09:47:13.454Z,100632.82
2018-04-07T09:52:08.616Z,100638.33
2018-04-07T09:57:03.314Z,100637.58
2018-04-07T10:01:59.383Z,100620.20
2018-04-07T10:06:53.844Z,100630.30
2018-04-07T10:11:49.002Z,100621.62
2018-04-07T10:16:43.398Z,100618.33
2018-04-07T10:21:38.779Z,100617.19
2018-04-07T10:26:34.662Z,100615.20
2018-04-07T10:31:29.112Z,100608.20
2018-04-07T10:36:23.387Z,100607.41
2018-04-07T10:41:17.786Z,100611.32
2018-04-07T10:46:12.186Z,100601.66
2018-04-07T10:51:06.824Z,100588.59
2018-04-07T10:56:01.402Z,100586.06
2018-04-07T11:00:55.850Z,100580.33
2018-04-07T11:05:50.249Z,100593.61
2018-04-07T11:10:45.411Z,100579.22
2018-04-07T11:15:40.342Z,100562.52
2018-04-07T11:20:34.683Z,100564.88
2018-04-07T11:25:29.257Z,100567.03
2018-04-07T11:30:23.640Z,100558.30
2018-04-07T11:35:18.008Z,100555.42
2018-04-07T11:40:12.392Z,100552.80
2018-04-07T11:45:06.764Z,100544.39
2018-04-07T11:50:01.272Z,100541.81
2018-04-07T11:54:55.660Z,100535.60
2018-04-07T11:59:50.071Z,100535.85
2018-04-07T12:04:44.452Z,100531.03
2018-04-07T12:09:38.850Z,100515.22
2018-04-07T12:14:33.982Z,100514.02
2018-04-07T12:19:28.524Z,100513.75
2018-04-07T12:24:22.888Z,100510.80
2018-04-07T12:29:17.240Z,100502.88
2018-04-07T12:34:11.594Z,100500.94
2018-04-07T12:39:05.284Z,100491.13
2018-04-07T12:43:59.642Z,100487.64
2018-04-07T12:48:54.008Z,100483.55
2018-04-07T12:53:48.124Z,100469.69
2018-04-07T12:58:42.488Z,100460.84
2018-04-07T13:03:36.605Z,100449.53
2018-04-07T13:08:30.976Z,100437.14
2018-04-07T13:13:25.347Z,100435.02
2018-04-07T13:18:20.490Z,100426.83
2018-04-07T13:23:15.381Z,100425.74
2018-04-07T13:28:09.624Z,100407.00
2018-04-07T13:33:04.002Z,100403.31
2018-04-07T13:37:59.134Z,100400.78
2018-04-07T13:42:54.284Z,100399.83
2018-04-07T13:47:48.415Z,100385.98
2018-04-07T13:52:42.896Z,100383.85
2018-04-07T13:57:37.264Z,100369.29
2018-04-07T14:02:31.608Z,100361.36
2018-04-07T14:07:25.962Z,100366.16
2018-04-07T14:12:20.311Z,100360.58
2018-04-07T14:17:14.699Z,100349.80
2018-04-07T14:22:09.131Z,100340.23
2018-04-07T14:27:03.506Z,100336.41
2018-04-07T14:31:57.857Z,100329.28
2018-04-07T14:36:52.218Z,100332.67
2018-04-07T14:41:46.608Z,100331.31
2018-04-07T14:46:41.007Z,100323.72
2018-04-07T14:51:36.775Z,100318.72
2018-04-07T14:56:46.121Z,100318.80
2018-04-07T15:01:40.736Z,100317.56
2018-04-07T15:06:43.884Z,100309.57
2018-04-07T15:11:41.913Z,100311.74
2018-04-07T15:16:36.279Z,100302.39
2018-04-07T15:21:31.618Z,100302.09
2018-04-07T15:26:25.986Z,100302.16
2018-04-07T15:31:20.364Z,100301.89
2018-04-07T15:36:14.747Z,100304.97
2018-04-07T15:41:09.277Z,100300.93
2018-04-07T15:46:03.646Z,100298.72
2018-04-07T15:50:58.218Z,100298.59
2018-04-07T15:56:07.762Z,100298.05
2018-04-07T16:01:02.848Z,100294.78
2018-04-07T16:05:58.192Z,100294.37
2018-04-07T16:10:52.514Z,100287.10
2018-04-07T16:15:47.850Z,100300.55
2018-04-07T16:20:43.672Z,100279.78
2018-04-07T16:25:39.027Z,100289.10
2018-04-07T16:30:38.484Z,100287.13
2018-04-07T16:35:32.871Z,100284.89
2018-04-07T16:40:27.256Z,100281.88
2018-04-07T16:45:21.680Z,100269.53
2018-04-07T16:50:16.416Z,100275.11
2018-04-07T16:55:10.764Z,100268.55
2018-04-07T17:00:05.242Z,100277.45
2018-04-07T17:04:59.611Z,100287.43
2018-04-07T17:09:58.109Z,100297.66
2018-04-07T17:14:54.018Z,100300.91
2018-04-07T17:20:11.340Z,100299.50
2018-04-07T17:25:20.635Z,100300.15
2018-04-07T17:30:15.068Z,100310.55
2018-04-07T17:35:09.562Z,100305.81
2018-04-07T17:40:04.298Z,100311.13
2018-04-07T17:45:11.672Z,100306.49
2018-04-07T17:50:05.833Z,100302.73
2018-04-07T17:55:00.213Z,100303.56
2018-04-07T17:59:55.666Z,100307.80
2018-04-07T18:05:06.001Z,100314.84
2018-04-07T18:15:32.798Z,100321.53
2018-04-07T18:20:27.173Z,100317.03
2018-04-07T18:25:21.567Z,100331.06
2018-04-07T18:30:16.077Z,100331.09
2018-04-07T18:35:10.420Z,100326.53
2018-04-07T18:40:05.106Z,100326.28
2018-04-07T18:44:59.493Z,100333.70
2018-04-07T18:49:53.897Z,100339.77
2018-04-07T18:54:48.406Z,100343.45
2018-04-07T18:59:42.765Z,100352.63
2018-04-07T19:04:37.877Z,100353.45
2018-04-07T19:09:32.967Z,100360.95
2018-04-07T19:14:27.465Z,100373.59
2018-04-07T19:19:21.848Z,100386.33
2018-04-07T19:24:16.199Z,100386.80
2018-04-07T19:29:10.742Z,100396.19
2018-04-07T19:34:05.485Z,100392.13
2018-04-07T19:49:46.835Z,100405.72
2018-04-07T19:54:42.272Z,100397.47
2018-04-07T19:59:36.808Z,100399.26
2018-04-07T20:04:31.577Z,100405.28
2018-04-07T20:09:29.381Z,100406.59
2018-04-07T20:14:23.868Z,100400.41
2018-04-07T20:19:18.210Z,100404.20
2018-04-07T20:24:13.149Z,100401.85
2018-04-07T20:29:08.309Z,100401.66
2018-04-07T20:34:03.849Z,100396.02
2018-04-07T20:38:58.824Z,100400.19
2018-04-07T20:43:53.309Z,100404.34
2018-04-07T20:48:48.600Z,100408.77
2018-04-07T20:53:46.238Z,100401.16
2018-04-07T20:58:40.664Z,100403.63
2018-04-07T21:03:35.070Z,100397.98
2018-04-07T21:08:29.197Z,100393.67
2018-04-07T21:13:23.565Z,100387.13
2018-04-07T21:18:17.943Z,100391.42
2018-04-07T21:23:12.293Z,100389.73
2018-04-07T21:28:07.389Z,100387.29
2018-04-07T21:33:01.980Z,100385.59
2018-04-07T21:37:56.864Z,100382.69
2018-04-07T21:42:51.992Z,100382.39
2018-04-07T21:47:47.098Z,100388.11
2018-04-07T21:52:42.102Z,100390.77
2018-04-07T21:57:37.272Z,100387.92
2018-04-07T22:02:31.803Z,100380.77
2018-04-07T22:07:27.155Z,100380.20
2018-04-07T22:12:21.390Z,100382.55
2018-04-07T22:17:16.851Z,100382.47
2018-04-07T22:22:11.895Z,100382.50
2018-04-07T22:27:06.272Z,100376.51
2018-04-07T22:32:00.426Z,100377.39
2018-04-07T22:36:55.690Z,100374.77
2018-04-07T22:41:49.823Z,100376.20
2018-04-07T22:46:44.200Z,100371.66
2018-04-07T22:51:38.624Z,100373.56
2018-04-07T22:56:33.328Z,100366.48
2018-04-07T23:01:27.693Z,100367.34
2018-04-07T23:06:22.426Z,100366.80
2018-04-07T23:11:16.821Z,100366.88
2018-04-07T23:16:11.191Z,100374.59
2018-04-07T23:21:06.340Z,100369.47
2018-04-07T23:26:01.773Z,100367.31
2018-04-07T23:30:56.170Z,100357.68
2018-04-07T23:35:50.562Z,100360.48
2018-04-07T23:40:44.936Z,100356.08
2018-04-07T23:45:40.070Z,100355.66
2018-04-07T23:50:35.224Z,100354.28
2018-04-07T23:55:29.592Z,100350.44
